sensor_id;sensor_type;location;lat;lon;timestamp;pressure;altitude;pressure_sealevel;temperature;humidity
74790;BME280;63318;52.406;13.416;2023-02-28T00:01:20;102790.92;;;0.33;73.28
74790;BME280;63318;52.406;13.416;2023-02-28T00:03:48;102786.79;;;0.33;73.52
74790;BME280;63318;52.406;13.416;2023-02-28T00:06:17;102785.62;;;0.33;73.59
74790;BME280;63318;52.406;13.416;2023-02-28T00:08:46;102784.38;;;0.33;73.51
74790;BME280;63318;52.406;13.416;2023-02-28T00:11:18;102784.50;;;0.34;73.90
74790;BME280;63318;52.406;13.416;2023-02-28T00:13:48;102784.54;;;0.33;73.96
74790;BME280;63318;52.406;13.416;2023-02-28T00:16:19;102786.93;;;0.33;73.75
74790;BME280;63318;52.406;13.416;2023-02-28T00:18:48;102789.62;;;0.34;73.90
74790;BME280;63318;52.406;13.416;2023-02-28T00:21:18;102790.34;;;0.34;73.74
74790;BME280;63318;52.406;13.416;2023-02-28T00:23:49;102793.54;;;0.34;74.09
74790;BME280;63318;52.406;13.416;2023-02-28T00:26:18;102789.16;;;0.34;74.16
74790;BME280;63318;52.406;13.416;2023-02-28T00:28:46;102786.05;;;0.34;73.86
74790;BME280;63318;52.406;13.416;2023-02-28T00:31:15;102787.06;;;0.35;74.27
74790;BME280;63318;52.406;13.416;2023-02-28T00:33:43;102785.95;;;0.35;74.18
74790;BME280;63318;52.406;13.416;2023-02-28T00:36:12;102789.54;;;0.36;73.88
74790;BME280;63318;52.406;13.416;2023-02-28T00:38:41;102786.98;;;0.36;73.89
74790;BME280;63318;52.406;13.416;2023-02-28T00:41:09;102788.60;;;0.36;74.17
74790;BME280;63318;52.406;13.416;2023-02-28T00:43:39;102784.83;;;0.36;74.39
74790;BME280;63318;52.406;13.416;2023-02-28T00:46:08;102789.39;;;0.35;74.45
74790;BME280;63318;52.406;13.416;2023-02-28T00:48:36;102788.65;;;0.36;74.03
74790;BME280;63318;52.406;13.416;2023-02-28T00:51:06;102791.01;;;0.36;74.50
74790;BME280;63318;52.406;13.416;2023-02-28T00:53:35;102788.86;;;0.36;74.30
74790;BME280;63318;52.406;13.416;2023-02-28T00:56:17;102785.74;;;0.36;74.47
74790;BME280;63318;52.406;13.416;2023-02-28T00:58:46;102793.40;;;0.36;74.47
74790;BME280;63318;52.406;13.416;2023-02-28T01:01:14;102791.58;;;0.36;74.68
74790;BME280;63318;52.406;13.416;2023-02-28T01:03:43;102796.27;;;0.36;74.82
74790;BME280;63318;52.406;13.416;2023-02-28T01:06:11;102791.35;;;0.36;74.68
74790;BME280;63318;52.406;13.416;2023-02-28T01:08:39;102792.77;;;0.37;74.53
74790;BME280;63318;52.406;13.416;2023-02-28T01:11:13;102793.11;;;0.37;74.76
74790;BME280;63318;52.406;13.416;2023-02-28T01:13:43;102789.95;;;0.37;74.90
74790;BME280;63318;52.406;13.416;2023-02-28T01:16:12;102790.03;;;0.37;74.92
74790;BME280;63318;52.406;13.416;2023-02-28T01:18:41;102788.45;;;0.36;74.62
74790;BME280;63318;52.406;13.416;2023-02-28T01:21:11;102785.73;;;0.36;74.92
74790;BME280;63318;52.406;13.416;2023-02-28T01:23:41;102783.68;;;0.34;74.78
74790;BME280;63318;52.406;13.416;2023-02-28T01:26:13;102783.52;;;0.34;74.70
74790;BME280;63318;52.406;13.416;2023-02-28T01:28:42;102780.50;;;0.34;74.44
74790;BME280;63318;52.406;13.416;2023-02-28T01:31:11;102782.95;;;0.33;74.62
74790;BME280;63318;52.406;13.416;2023-02-28T01:33:40;102779.27;;;0.31;74.75
74790;BME280;63318;52.406;13.416;2023-02-28T01:36:12;102776.50;;;0.30;74.72
74790;BME280;63318;52.406;13.416;2023-02-28T01:38:41;102775.60;;;0.28;75.30
74790;BME280;63318;52.406;13.416;2023-02-28T01:41:15;102773.31;;;0.26;74.94
74790;BME280;63318;52.406;13.416;2023-02-28T01:44:01;102772.63;;;0.24;75.02
74790;BME280;63318;52.406;13.416;2023-02-28T01:46:30;102773.10;;;0.21;75.24
74790;BME280;63318;52.406;13.416;2023-02-28T01:49:05;102769.39;;;0.18;74.97
74790;BME280;63318;52.406;13.416;2023-02-28T01:51:41;102777.23;;;0.16;75.36
74790;BME280;63318;52.406;13.416;2023-02-28T01:54:12;102773.27;;;0.14;75.33
74790;BME280;63318;52.406;13.416;2023-02-28T01:56:46;102773.91;;;0.11;75.43
74790;BME280;63318;52.406;13.416;2023-02-28T01:59:22;102769.91;;;0.08;75.32
74790;BME280;63318;52.406;13.416;2023-02-28T02:01:54;102769.27;;;0.05;75.26
74790;BME280;63318;52.406;13.416;2023-02-28T02:04:24;102773.17;;;0.02;75.54
74790;BME280;63318;52.406;13.416;2023-02-28T02:06:54;102773.91;;;0.01;75.44
74790;BME280;63318;52.406;13.416;2023-02-28T02:09:23;102774.91;;;-0.02;75.50
74790;BME280;63318;52.406;13.416;2023-02-28T02:11:51;102772.42;;;-0.05;75.60
74790;BME280;63318;52.406;13.416;2023-02-28T02:14:42;102770.36;;;-0.08;75.40
74790;BME280;63318;52.406;13.416;2023-02-28T02:17:22;102774.42;;;-0.12;75.62
74790;BME280;63318;52.406;13.416;2023-02-28T02:20:31;102779.21;;;-0.16;75.74
74790;BME280;63318;52.406;13.416;2023-02-28T02:23:23;102772.59;;;-0.20;75.75
74790;BME280;63318;52.406;13.416;2023-02-28T02:26:00;102776.85;;;-0.25;75.50
74790;BME280;63318;52.406;13.416;2023-02-28T02:28:53;102775.38;;;-0.28;75.63
74790;BME280;63318;52.406;13.416;2023-02-28T02:34:50;102770.26;;;-0.37;75.95
74790;BME280;63318;52.406;13.416;2023-02-28T02:37:31;102770.17;;;-0.41;76.03
74790;BME280;63318;52.406;13.416;2023-02-28T02:40:12;102774.63;;;-0.46;75.87
74790;BME280;63318;52.406;13.416;2023-02-28T02:42:47;102773.33;;;-0.49;75.83
74790;BME280;63318;52.406;13.416;2023-02-28T02:45:21;102774.92;;;-0.52;76.05
74790;BME280;63318;52.406;13.416;2023-02-28T02:47:50;102768.88;;;-0.55;75.82
74790;BME280;63318;52.406;13.416;2023-02-28T02:50:24;102771.09;;;-0.59;75.87
74790;BME280;63318;52.406;13.416;2023-02-28T02:52:59;102770.85;;;-0.64;75.90
74790;BME280;63318;52.406;13.416;2023-02-28T02:55:29;102772.71;;;-0.68;76.21
74790;BME280;63318;52.406;13.416;2023-02-28T02:58:01;102779.44;;;-0.72;76.02
74790;BME280;63318;52.406;13.416;2023-02-28T03:00:34;102773.84;;;-0.76;76.04
74790;BME280;63318;52.406;13.416;2023-02-28T03:03:04;102773.20;;;-0.81;75.71
74790;BME280;63318;52.406;13.416;2023-02-28T03:05:39;102776.63;;;-0.84;75.93
74790;BME280;63318;52.406;13.416;2023-02-28T03:08:10;102777.89;;;-0.88;75.98
74790;BME280;63318;52.406;13.416;2023-02-28T03:10:41;102775.51;;;-0.91;75.71
74790;BME280;63318;52.406;13.416;2023-02-28T03:13:23;102775.48;;;-0.95;76.05
74790;BME280;63318;52.406;13.416;2023-02-28T03:18:57;102782.85;;;-1.03;76.11
74790;BME280;63318;52.406;13.416;2023-02-28T03:21:36;102784.83;;;-1.06;76.48
74790;BME280;63318;52.406;13.416;2023-02-28T03:24:10;102783.20;;;-1.10;76.02
74790;BME280;63318;52.406;13.416;2023-02-28T03:26:42;102784.63;;;-1.14;76.49
74790;BME280;63318;52.406;13.416;2023-02-28T03:29:18;102791.21;;;-1.18;76.19
74790;BME280;63318;52.406;13.416;2023-02-28T03:31:54;102790.53;;;-1.22;76.59
74790;BME280;63318;52.406;13.416;2023-02-28T03:34:29;102788.16;;;-1.25;76.60
74790;BME280;63318;52.406;13.416;2023-02-28T03:37:02;102787.91;;;-1.30;76.45
74790;BME280;63318;52.406;13.416;2023-02-28T03:39:37;102788.04;;;-1.35;76.31
74790;BME280;63318;52.406;13.416;2023-02-28T03:42:08;102793.53;;;-1.39;76.64
74790;BME280;63318;52.406;13.416;2023-02-28T03:44:40;102790.69;;;-1.44;76.52
74790;BME280;63318;52.406;13.416;2023-02-28T03:47:16;102790.39;;;-1.48;76.78
74790;BME280;63318;52.406;13.416;2023-02-28T03:49:49;102793.25;;;-1.54;76.66
74790;BME280;63318;52.406;13.416;2023-02-28T03:52:20;102794.27;;;-1.59;76.84
74790;BME280;63318;52.406;13.416;2023-02-28T03:54:54;102793.89;;;-1.64;76.82
74790;BME280;63318;52.406;13.416;2023-02-28T03:57:31;102790.23;;;-1.70;76.76
74790;BME280;63318;52.406;13.416;2023-02-28T04:00:04;102788.27;;;-1.76;76.74
74790;BME280;63318;52.406;13.416;2023-02-28T04:02:34;102791.61;;;-1.80;77.08
74790;BME280;63318;52.406;13.416;2023-02-28T04:05:03;102796.57;;;-1.85;77.10
74790;BME280;63318;52.406;13.416;2023-02-28T04:07:32;102794.96;;;-1.89;77.00
74790;BME280;63318;52.406;13.416;2023-02-28T04:10:00;102793.67;;;-1.92;77.41
74790;BME280;63318;52.406;13.416;2023-02-28T04:12:28;102795.91;;;-1.97;77.14
74790;BME280;63318;52.406;13.416;2023-02-28T04:14:57;102795.16;;;-2.00;77.31
74790;BME280;63318;52.406;13.416;2023-02-28T04:17:25;102796.79;;;-2.04;77.04
74790;BME280;63318;52.406;13.416;2023-02-28T04:19:54;102799.95;;;-2.07;77.49
74790;BME280;63318;52.406;13.416;2023-02-28T04:22:22;102798.02;;;-2.09;77.61
74790;BME280;63318;52.406;13.416;2023-02-28T04:24:51;102798.30;;;-2.13;77.79
74790;BME280;63318;52.406;13.416;2023-02-28T04:27:19;102798.84;;;-2.17;77.56
74790;BME280;63318;52.406;13.416;2023-02-28T04:29:48;102796.05;;;-2.20;77.70
74790;BME280;63318;52.406;13.416;2023-02-28T04:32:16;102798.89;;;-2.23;77.85
74790;BME280;63318;52.406;13.416;2023-02-28T04:34:45;102801.56;;;-2.27;77.96
74790;BME280;63318;52.406;13.416;2023-02-28T04:37:13;102805.93;;;-2.31;77.75
74790;BME280;63318;52.406;13.416;2023-02-28T04:39:42;102811.64;;;-2.33;77.71
74790;BME280;63318;52.406;13.416;2023-02-28T04:42:11;102810.33;;;-2.37;77.80
74790;BME280;63318;52.406;13.416;2023-02-28T04:44:40;102808.69;;;-2.39;77.85
74790;BME280;63318;52.406;13.416;2023-02-28T04:47:08;102810.62;;;-2.42;77.98
74790;BME280;63318;52.406;13.416;2023-02-28T04:49:37;102814.82;;;-2.44;77.98
74790;BME280;63318;52.406;13.416;2023-02-28T04:52:05;102815.17;;;-2.48;77.72
74790;BME280;63318;52.406;13.416;2023-02-28T04:54:33;102815.02;;;-2.52;77.66
74790;BME280;63318;52.406;13.416;2023-02-28T04:57:02;102820.34;;;-2.55;77.96
74790;BME280;63318;52.406;13.416;2023-02-28T04:59:30;102820.20;;;-2.57;78.18
74790;BME280;63318;52.406;13.416;2023-02-28T05:01:58;102821.36;;;-2.60;78.09
74790;BME280;63318;52.406;13.416;2023-02-28T05:04:26;102822.04;;;-2.63;78.19
74790;BME280;63318;52.406;13.416;2023-02-28T05:06:55;102823.02;;;-2.66;78.41
74790;BME280;63318;52.406;13.416;2023-02-28T05:09:23;102824.73;;;-2.69;78.43
74790;BME280;63318;52.406;13.416;2023-02-28T05:11:51;102822.77;;;-2.71;78.39
74790;BME280;63318;52.406;13.416;2023-02-28T05:14:19;102823.37;;;-2.74;78.44
74790;BME280;63318;52.406;13.416;2023-02-28T05:16:48;102826.53;;;-2.77;78.31
74790;BME280;63318;52.406;13.416;2023-02-28T05:19:16;102826.71;;;-2.79;78.27
74790;BME280;63318;52.406;13.416;2023-02-28T05:21:51;102825.48;;;-2.82;78.38
74790;BME280;63318;52.406;13.416;2023-02-28T05:24:20;102828.98;;;-2.84;78.73
74790;BME280;63318;52.406;13.416;2023-02-28T05:26:49;102831.16;;;-2.86;78.45
74790;BME280;63318;52.406;13.416;2023-02-28T05:29:17;102828.39;;;-2.88;78.50
74790;BME280;63318;52.406;13.416;2023-02-28T05:31:46;102828.80;;;-2.91;78.49
74790;BME280;63318;52.406;13.416;2023-02-28T05:34:15;102828.50;;;-2.93;78.60
74790;BME280;63318;52.406;13.416;2023-02-28T05:36:43;102830.70;;;-2.95;78.84
74790;BME280;63318;52.406;13.416;2023-02-28T05:39:11;102833.23;;;-2.97;78.64
74790;BME280;63318;52.406;13.416;2023-02-28T05:41:42;102833.45;;;-3.00;78.75
74790;BME280;63318;52.406;13.416;2023-02-28T05:44:11;102832.30;;;-3.01;78.79
74790;BME280;63318;52.406;13.416;2023-02-28T05:46:40;102834.52;;;-3.04;78.99
74790;BME280;63318;52.406;13.416;2023-02-28T05:49:08;102834.71;;;-3.06;78.91
74790;BME280;63318;52.406;13.416;2023-02-28T05:51:36;102836.13;;;-3.07;78.81
74790;BME280;63318;52.406;13.416;2023-02-28T05:54:06;102839.15;;;-3.09;78.74
74790;BME280;63318;52.406;13.416;2023-02-28T05:56:34;102842.33;;;-3.10;78.96
74790;BME280;63318;52.406;13.416;2023-02-28T05:59:03;102844.80;;;-3.11;78.98
74790;BME280;63318;52.406;13.416;2023-02-28T06:01:37;102841.67;;;-3.13;78.98
74790;BME280;63318;52.406;13.416;2023-02-28T06:04:07;102846.76;;;-3.15;78.97
74790;BME280;63318;52.406;13.416;2023-02-28T06:06:36;102849.23;;;-3.16;78.88
74790;BME280;63318;52.406;13.416;2023-02-28T06:09:05;102850.48;;;-3.18;79.16
74790;BME280;63318;52.406;13.416;2023-02-28T06:11:33;102849.63;;;-3.18;78.96
74790;BME280;63318;52.406;13.416;2023-02-28T06:14:02;102851.84;;;-3.19;79.35
74790;BME280;63318;52.406;13.416;2023-02-28T06:16:32;102853.33;;;-3.20;79.15
74790;BME280;63318;52.406;13.416;2023-02-28T06:19:03;102851.06;;;-3.20;79.34
74790;BME280;63318;52.406;13.416;2023-02-28T06:21:33;102849.87;;;-3.21;79.40
74790;BME280;63318;52.406;13.416;2023-02-28T06:24:02;102856.60;;;-3.22;79.69
74790;BME280;63318;52.406;13.416;2023-02-28T06:26:31;102862.73;;;-3.21;79.62
74790;BME280;63318;52.406;13.416;2023-02-28T06:29:00;102861.86;;;-3.22;79.59
74790;BME280;63318;52.406;13.416;2023-02-28T06:31:28;102863.86;;;-3.22;79.50
74790;BME280;63318;52.406;13.416;2023-02-28T06:33:56;102866.93;;;-3.22;79.82
74790;BME280;63318;52.406;13.416;2023-02-28T06:36:24;102868.98;;;-3.22;79.85
74790;BME280;63318;52.406;13.416;2023-02-28T06:38:53;102871.26;;;-3.22;79.79
74790;BME280;63318;52.406;13.416;2023-02-28T06:41:22;102873.63;;;-3.22;79.74
74790;BME280;63318;52.406;13.416;2023-02-28T06:43:51;102878.84;;;-3.21;79.85
74790;BME280;63318;52.406;13.416;2023-02-28T06:46:20;102882.00;;;-3.20;79.85
74790;BME280;63318;52.406;13.416;2023-02-28T06:48:48;102880.29;;;-3.19;79.99
74790;BME280;63318;52.406;13.416;2023-02-28T06:51:18;102883.46;;;-3.18;80.39
74790;BME280;63318;52.406;13.416;2023-02-28T06:53:47;102882.83;;;-3.17;80.46
74790;BME280;63318;52.406;13.416;2023-02-28T06:56:17;102884.45;;;-3.15;80.35
74790;BME280;63318;52.406;13.416;2023-02-28T06:58:49;102885.36;;;-3.13;80.52
74790;BME280;63318;52.406;13.416;2023-02-28T07:01:18;102891.46;;;-3.10;80.47
74790;BME280;63318;52.406;13.416;2023-02-28T07:03:47;102891.10;;;-3.08;80.52
74790;BME280;63318;52.406;13.416;2023-02-28T07:06:16;102890.20;;;-3.06;80.55
74790;BME280;63318;52.406;13.416;2023-02-28T07:08:44;102890.52;;;-3.04;80.70
74790;BME280;63318;52.406;13.416;2023-02-28T07:11:13;102892.73;;;-3.00;80.73
74790;BME280;63318;52.406;13.416;2023-02-28T07:13:41;102894.81;;;-2.97;80.70
74790;BME280;63318;52.406;13.416;2023-02-28T07:16:11;102896.50;;;-2.94;80.95
74790;BME280;63318;52.406;13.416;2023-02-28T07:18:39;102896.95;;;-2.90;80.76
74790;BME280;63318;52.406;13.416;2023-02-28T07:21:09;102899.11;;;-2.87;80.93
74790;BME280;63318;52.406;13.416;2023-02-28T07:23:38;102899.58;;;-2.81;80.85
74790;BME280;63318;52.406;13.416;2023-02-28T07:26:10;102897.75;;;-2.75;81.02
74790;BME280;63318;52.406;13.416;2023-02-28T07:28:39;102896.68;;;-2.67;81.14
74790;BME280;63318;52.406;13.416;2023-02-28T07:31:08;102895.95;;;-2.59;80.78
74790;BME280;63318;52.406;13.416;2023-02-28T07:33:41;102894.48;;;-2.50;80.99
74790;BME280;63318;52.406;13.416;2023-02-28T07:36:16;102897.83;;;-2.41;81.08
74790;BME280;63318;52.406;13.416;2023-02-28T07:38:47;102901.51;;;-2.32;80.94
74790;BME280;63318;52.406;13.416;2023-02-28T07:41:16;102900.15;;;-2.23;81.13
74790;BME280;63318;52.406;13.416;2023-02-28T07:43:45;102902.17;;;-2.14;81.06
74790;BME280;63318;52.406;13.416;2023-02-28T07:46:15;102898.55;;;-2.04;81.04
74790;BME280;63318;52.406;13.416;2023-02-28T07:48:44;102897.33;;;-1.94;80.78
74790;BME280;63318;52.406;13.416;2023-02-28T07:51:13;102897.16;;;-1.85;80.82
74790;BME280;63318;52.406;13.416;2023-02-28T07:53:44;102897.95;;;-1.74;80.99
74790;BME280;63318;52.406;13.416;2023-02-28T07:56:12;102899.00;;;-1.62;80.87
74790;BME280;63318;52.406;13.416;2023-02-28T07:58:42;102899.02;;;-1.51;80.67
74790;BME280;63318;52.406;13.416;2023-02-28T08:01:11;102897.92;;;-1.37;80.54
74790;BME280;63318;52.406;13.416;2023-02-28T08:03:40;102898.81;;;-1.23;80.55
74790;BME280;63318;52.406;13.416;2023-02-28T08:06:14;102897.73;;;-1.08;80.43
74790;BME280;63318;52.406;13.416;2023-02-28T08:08:43;102900.50;;;-0.94;79.98
74790;BME280;63318;52.406;13.416;2023-02-28T08:11:12;102899.14;;;-0.78;79.98
74790;BME280;63318;52.406;13.416;2023-02-28T08:13:40;102901.81;;;-0.62;79.70
74790;BME280;63318;52.406;13.416;2023-02-28T08:16:08;102899.59;;;-0.47;79.40
74790;BME280;63318;52.406;13.416;2023-02-28T08:18:37;102903.09;;;-0.31;79.16
74790;BME280;63318;52.406;13.416;2023-02-28T08:21:09;102905.73;;;-0.14;78.94
74790;BME280;63318;52.406;13.416;2023-02-28T08:23:36;102907.33;;;0.05;78.63
74790;BME280;63318;52.406;13.416;2023-02-28T08:26:06;102903.23;;;0.22;78.27
74790;BME280;63318;52.406;13.416;2023-02-28T08:28:35;102902.89;;;0.41;78.04
74790;BME280;63318;52.406;13.416;2023-02-28T08:31:09;102903.87;;;0.60;77.60
74790;BME280;63318;52.406;13.416;2023-02-28T08:33:37;102901.91;;;0.81;77.06
74790;BME280;63318;52.406;13.416;2023-02-28T08:36:07;102902.32;;;1.01;76.63
74790;BME280;63318;52.406;13.416;2023-02-28T08:38:37;102902.91;;;1.21;75.73
74790;BME280;63318;52.406;13.416;2023-02-28T08:41:08;102900.98;;;1.41;75.53
74790;BME280;63318;52.406;13.416;2023-02-28T08:43:38;102902.60;;;1.62;75.36
74790;BME280;63318;52.406;13.416;2023-02-28T08:46:08;102905.38;;;1.82;74.98
74790;BME280;63318;52.406;13.416;2023-02-28T08:48:39;102903.84;;;2.02;74.61
74790;BME280;63318;52.406;13.416;2023-02-28T08:51:10;102903.14;;;2.22;74.19
74790;BME280;63318;52.406;13.416;2023-02-28T08:53:40;102907.20;;;2.42;72.76
74790;BME280;63318;52.406;13.416;2023-02-28T08:56:12;102902.58;;;2.60;72.28
74790;BME280;63318;52.406;13.416;2023-02-28T08:58:41;102900.40;;;2.80;72.19
74790;BME280;63318;52.406;13.416;2023-02-28T09:01:13;102898.80;;;2.97;71.24
74790;BME280;63318;52.406;13.416;2023-02-28T09:03:41;102895.80;;;3.15;70.50
74790;BME280;63318;52.406;13.416;2023-02-28T09:06:10;102899.39;;;3.32;68.25
74790;BME280;63318;52.406;13.416;2023-02-28T09:08:39;102897.23;;;3.49;68.72
74790;BME280;63318;52.406;13.416;2023-02-28T09:11:08;102899.83;;;3.66;68.29
74790;BME280;63318;52.406;13.416;2023-02-28T09:13:37;102899.42;;;3.84;68.64
74790;BME280;63318;52.406;13.416;2023-02-28T09:16:08;102904.14;;;3.98;68.23
74790;BME280;63318;52.406;13.416;2023-02-28T09:18:37;102901.67;;;4.13;66.63
74790;BME280;63318;52.406;13.416;2023-02-28T09:21:07;102901.42;;;4.29;66.17
74790;BME280;63318;52.406;13.416;2023-02-28T09:23:35;102899.73;;;4.48;66.41
74790;BME280;63318;52.406;13.416;2023-02-28T09:26:03;102897.93;;;4.61;65.49
74790;BME280;63318;52.406;13.416;2023-02-28T09:28:32;102892.63;;;4.76;65.13
74790;BME280;63318;52.406;13.416;2023-02-28T09:31:00;102891.94;;;4.89;64.27
74790;BME280;63318;52.406;13.416;2023-02-28T09:33:28;102899.00;;;5.02;63.48
74790;BME280;63318;52.406;13.416;2023-02-28T09:36:01;102894.61;;;5.14;62.25
74790;BME280;63318;52.406;13.416;2023-02-28T09:38:30;102896.07;;;5.26;62.29
74790;BME280;63318;52.406;13.416;2023-02-28T09:41:00;102897.16;;;5.38;62.87
74790;BME280;63318;52.406;13.416;2023-02-28T09:43:34;102890.14;;;5.50;61.38
74790;BME280;63318;52.406;13.416;2023-02-28T09:46:08;102892.23;;;5.61;61.69
74790;BME280;63318;52.406;13.416;2023-02-28T09:48:43;102893.20;;;5.73;61.51
74790;BME280;63318;52.406;13.416;2023-02-28T09:51:23;102888.71;;;5.84;61.33
74790;BME280;63318;52.406;13.416;2023-02-28T09:53:55;102888.73;;;5.95;60.54
74790;BME280;63318;52.406;13.416;2023-02-28T09:56:26;102890.86;;;6.06;60.34
74790;BME280;63318;52.406;13.416;2023-02-28T09:58:59;102896.42;;;6.16;59.23
74790;BME280;63318;52.406;13.416;2023-02-28T10:01:34;102895.50;;;6.23;59.28
74790;BME280;63318;52.406;13.416;2023-02-28T10:04:10;102894.96;;;6.34;59.96
74790;BME280;63318;52.406;13.416;2023-02-28T10:06:46;102888.70;;;6.44;56.92
74790;BME280;63318;52.406;13.416;2023-02-28T10:09:18;102888.48;;;6.57;57.63
74790;BME280;63318;52.406;13.416;2023-02-28T10:11:48;102888.92;;;6.67;57.58
74790;BME280;63318;52.406;13.416;2023-02-28T10:14:21;102890.11;;;6.78;58.09
74790;BME280;63318;52.406;13.416;2023-02-28T10:16:52;102887.89;;;6.89;56.45
74790;BME280;63318;52.406;13.416;2023-02-28T10:19:27;102887.27;;;7.01;56.06
74790;BME280;63318;52.406;13.416;2023-02-28T10:22:01;102885.21;;;7.12;55.77
74790;BME280;63318;52.406;13.416;2023-02-28T10:24:34;102883.86;;;7.24;57.01
74790;BME280;63318;52.406;13.416;2023-02-28T10:27:12;102879.13;;;7.32;56.62
74790;BME280;63318;52.406;13.416;2023-02-28T10:29:44;102881.10;;;7.35;56.28
74790;BME280;63318;52.406;13.416;2023-02-28T10:32:16;102882.78;;;7.36;54.97
74790;BME280;63318;52.406;13.416;2023-02-28T10:34:46;102881.91;;;7.44;56.23
74790;BME280;63318;52.406;13.416;2023-02-28T10:37:20;102883.29;;;7.52;54.95
74790;BME280;63318;52.406;13.416;2023-02-28T10:39:49;102886.39;;;7.59;54.92
74790;BME280;63318;52.406;13.416;2023-02-28T10:42:26;102885.61;;;7.63;54.32
74790;BME280;63318;52.406;13.416;2023-02-28T10:45:13;102887.10;;;7.68;53.96
74790;BME280;63318;52.406;13.416;2023-02-28T10:47:52;102883.36;;;7.78;53.35
74790;BME280;63318;52.406;13.416;2023-02-28T10:50:51;102885.87;;;7.90;53.85
74790;BME280;63318;52.406;13.416;2023-02-28T10:53:32;102877.52;;;8.03;52.85
74790;BME280;63318;52.406;13.416;2023-02-28T10:56:03;102876.37;;;8.11;54.22
74790;BME280;63318;52.406;13.416;2023-02-28T10:58:44;102872.80;;;8.14;53.25
74790;BME280;63318;52.406;13.416;2023-02-28T11:01:17;102872.13;;;8.17;53.79
74790;BME280;63318;52.406;13.416;2023-02-28T11:03:46;102874.48;;;8.21;52.20
74790;BME280;63318;52.406;13.416;2023-02-28T11:06:21;102869.16;;;8.22;51.10
74790;BME280;63318;52.406;13.416;2023-02-28T11:08:52;102867.54;;;8.25;52.28
74790;BME280;63318;52.406;13.416;2023-02-28T11:11:22;102866.16;;;8.27;52.60
74790;BME280;63318;52.406;13.416;2023-02-28T11:13:54;102862.92;;;8.30;52.40
74790;BME280;63318;52.406;13.416;2023-02-28T11:16:34;102857.39;;;8.30;52.63
74790;BME280;63318;52.406;13.416;2023-02-28T11:19:06;102857.56;;;8.18;52.50
74790;BME280;63318;52.406;13.416;2023-02-28T11:21:51;102852.49;;;8.16;52.20
74790;BME280;63318;52.406;13.416;2023-02-28T11:24:25;102852.77;;;8.19;52.74
74790;BME280;63318;52.406;13.416;2023-02-28T11:26:54;102845.89;;;8.15;51.50
74790;BME280;63318;52.406;13.416;2023-02-28T11:29:25;102844.33;;;8.21;51.59
74790;BME280;63318;52.406;13.416;2023-02-28T11:32:15;102843.50;;;8.29;49.70
74790;BME280;63318;52.406;13.416;2023-02-28T11:34:45;102838.44;;;8.34;51.76
74790;BME280;63318;52.406;13.416;2023-02-28T11:37:16;102833.45;;;8.43;51.88
74790;BME280;63318;52.406;13.416;2023-02-28T11:39:47;102833.12;;;8.47;50.37
74790;BME280;63318;52.406;13.416;2023-02-28T11:42:44;102833.67;;;8.48;51.73
74790;BME280;63318;52.406;13.416;2023-02-28T11:45:21;102835.42;;;8.46;50.94
74790;BME280;63318;52.406;13.416;2023-02-28T11:47:58;102840.48;;;8.47;50.23
74790;BME280;63318;52.406;13.416;2023-02-28T11:50:42;102837.88;;;8.55;50.75
74790;BME280;63318;52.406;13.416;2023-02-28T11:53:21;102839.25;;;8.64;52.15
74790;BME280;63318;52.406;13.416;2023-02-28T11:55:54;102834.83;;;8.68;50.09
74790;BME280;63318;52.406;13.416;2023-02-28T11:58:38;102832.54;;;8.71;50.99
74790;BME280;63318;52.406;13.416;2023-02-28T12:01:20;102831.13;;;8.74;51.14
74790;BME280;63318;52.406;13.416;2023-02-28T12:04:01;102829.27;;;8.77;51.30
74790;BME280;63318;52.406;13.416;2023-02-28T12:06:36;102831.29;;;8.69;50.87
74790;BME280;63318;52.406;13.416;2023-02-28T12:09:16;102827.53;;;8.66;50.69
74790;BME280;63318;52.406;13.416;2023-02-28T12:11:53;102825.37;;;8.70;49.45
74790;BME280;63318;52.406;13.416;2023-02-28T12:14:46;102822.55;;;8.75;49.35
74790;BME280;63318;52.406;13.416;2023-02-28T12:17:25;102820.45;;;8.81;48.90
74790;BME280;63318;52.406;13.416;2023-02-28T12:20:05;102825.22;;;8.86;50.33
74790;BME280;63318;52.406;13.416;2023-02-28T12:22:42;102820.35;;;8.92;49.03
74790;BME280;63318;52.406;13.416;2023-02-28T12:28:14;102811.95;;;8.90;46.95
74790;BME280;63318;52.406;13.416;2023-02-28T12:30:51;102814.30;;;8.89;48.89
74790;BME280;63318;52.406;13.416;2023-02-28T12:33:26;102813.45;;;8.91;49.01
74790;BME280;63318;52.406;13.416;2023-02-28T12:35:59;102804.84;;;8.92;47.94
74790;BME280;63318;52.406;13.416;2023-02-28T12:38:31;102802.70;;;8.95;49.75
74790;BME280;63318;52.406;13.416;2023-02-28T12:41:08;102799.03;;;8.98;49.68
74790;BME280;63318;52.406;13.416;2023-02-28T12:43:43;102795.25;;;9.00;49.32
74790;BME280;63318;52.406;13.416;2023-02-28T12:46:12;102790.67;;;9.03;49.88
74790;BME280;63318;52.406;13.416;2023-02-28T12:48:44;102786.11;;;9.07;49.27
74790;BME280;63318;52.406;13.416;2023-02-28T12:51:15;102783.00;;;9.11;49.70
74790;BME280;63318;52.406;13.416;2023-02-28T12:53:57;102778.98;;;9.13;49.36
74790;BME280;63318;52.406;13.416;2023-02-28T12:56:35;102766.77;;;9.17;49.01
74790;BME280;63318;52.406;13.416;2023-02-28T12:59:16;102758.92;;;9.18;48.92
74790;BME280;63318;52.406;13.416;2023-02-28T13:02:14;102753.34;;;9.14;48.54
74790;BME280;63318;52.406;13.416;2023-02-28T13:05:17;102751.08;;;9.12;49.40
74790;BME280;63318;52.406;13.416;2023-02-28T13:08:07;102743.96;;;9.12;48.54
74790;BME280;63318;52.406;13.416;2023-02-28T13:10:44;102742.44;;;9.10;47.77
74790;BME280;63318;52.406;13.416;2023-02-28T13:13:19;102736.09;;;8.98;48.40
74790;BME280;63318;52.406;13.416;2023-02-28T13:16:08;102738.92;;;8.93;46.53
74790;BME280;63318;52.406;13.416;2023-02-28T13:18:39;102737.41;;;8.96;47.58
74790;BME280;63318;52.406;13.416;2023-02-28T13:21:22;102737.02;;;9.00;46.76